Time;durP1;ratioP1;P1;durP2;ratioP2;P2;SDS_P1;SDS_P2;PMS_P1;PMS_P2;Temp;Humidity;BMP_temperature;BMP_pressure;BME280_temperature;BME280_humidity;BME280_pressure;Samples;Min_cycle;Max_cycle;Signal;HPM_P1;HPM_P2
2022/04/26 03:36:21;;;;;;;31.88;19.52;;;7.10;99.90;;;;;;4933913;29;20052;-82
2022/04/26 03:38:48;;;;;;;31.92;18.17;;;7.40;99.90;;;;;;4933272;29;20044;-83
2022/04/26 03:41:14;;;;;;;34.75;18.80;;;7.30;99.90;;;;;;4918378;29;20066;-83
2022/04/26 03:43:40;;;;;;;28.67;16.67;;;7.30;99.90;;;;;;4933682;29;20052;-82
2022/04/26 03:46:06;;;;;;;32.63;17.63;;;7.30;99.90;;;;;;4942706;29;20043;-82
2022/04/26 03:48:31;;;;;;;31.20;17.33;;;8.20;99.90;;;;;;4928357;29;20060;-83
2022/04/26 03:50:58;;;;;;;24.98;14.02;;;7.50;99.90;;;;;;4917707;29;20078;-82
2022/04/26 03:53:23;;;;;;;30.17;17.70;;;7.50;99.90;;;;;;4941428;29;20062;-83
2022/04/26 03:55:49;;;;;;;21.20;12.68;;;7.40;99.90;;;;;;4941008;29;20500;-82
2022/04/26 03:58:15;;;;;;;26.23;16.15;;;7.50;99.90;;;;;;4917978;29;20098;-83
2022/04/26 04:00:40;;;;;;;26.90;16.33;;;7.50;99.90;;;;;;4933627;29;20062;-81
2022/04/26 04:03:06;;;;;;;29.95;15.93;;;7.40;99.90;;;;;;4918111;29;20047;-82
2022/04/26 04:05:32;;;;;;;25.98;14.27;;;7.50;99.90;;;;;;4933382;29;20046;-82
2022/04/26 04:07:57;;;;;;;26.00;16.25;;;7.30;99.90;;;;;;4901422;29;20365;-82
2022/04/26 04:10:23;;;;;;;22.48;13.38;;;7.20;99.90;;;;;;4933399;29;20076;-82
2022/04/26 04:12:49;;;;;;;22.48;13.05;;;7.30;99.90;;;;;;4916446;29;20056;-83
2022/04/26 04:15:14;;;;;;;29.13;15.20;;;7.20;99.90;;;;;;4917010;29;20058;-81
2022/04/26 04:17:40;;;;;;;19.85;12.80;;;7.30;99.90;;;;;;4917364;29;20134;-82
2022/04/26 04:20:06;;;;;;;26.88;14.73;;;7.30;99.90;;;;;;4932580;29;20059;-82
2022/04/26 04:22:32;;;;;;;26.02;15.85;;;7.20;99.90;;;;;;4932609;29;20515;-81
2022/04/26 04:24:58;;;;;;;25.17;14.63;;;7.10;99.90;;;;;;4933549;29;20051;-82
2022/04/26 04:27:23;;;;;;;28.58;16.48;;;7.20;99.90;;;;;;4933483;29;20481;-82
2022/04/26 04:29:51;;;;;;;25.65;14.20;;;7.10;99.90;;;;;;4934289;29;20389;-83
2022/04/26 04:32:17;;;;;;;28.58;15.07;;;7.20;99.90;;;;;;4941520;29;20087;-83
2022/04/26 04:34:43;;;;;;;26.02;14.20;;;7.70;99.90;;;;;;4933021;29;20052;-81
2022/04/26 04:37:09;;;;;;;29.92;13.25;;;7.20;99.90;;;;;;4945805;29;20091;-82
2022/04/26 04:39:36;;;;;;;26.73;13.40;;;7.20;99.90;;;;;;4933270;29;20051;-82
2022/04/26 04:42:02;;;;;;;21.33;9.85;;;7.20;99.90;;;;;;4932664;29;20050;-82
2022/04/26 04:44:27;;;;;;;21.77;11.65;;;7.30;99.90;;;;;;4932694;29;20043;-83
2022/04/26 04:46:54;;;;;;;23.55;11.10;;;7.40;99.90;;;;;;4931091;29;20052;-83
2022/04/26 04:49:20;;;;;;;19.80;10.05;;;7.60;99.90;;;;;;4917092;29;20083;-83
2022/04/26 04:51:46;;;;;;;24.40;10.52;;;7.70;99.90;;;;;;4916535;29;20059;-81
2022/04/26 04:54:11;;;;;;;18.05;9.77;;;7.80;99.90;;;;;;4915371;29;20127;-83
2022/04/26 04:56:37;;;;;;;20.70;9.82;;;7.70;99.90;;;;;;4932339;29;20099;-83
2022/04/26 04:59:03;;;;;;;22.75;10.52;;;7.80;99.90;;;;;;4916206;29;20127;-83
2022/04/26 05:01:29;;;;;;;20.42;9.75;;;7.80;99.90;;;;;;4932404;29;20044;-83
2022/04/26 05:03:54;;;;;;;19.90;9.23;;;7.90;99.90;;;;;;4915448;29;20456;-84
2022/04/26 05:06:20;;;;;;;24.13;10.13;;;7.90;99.90;;;;;;4932613;29;20168;-83
2022/04/26 05:08:46;;;;;;;19.55;9.52;;;8.10;99.90;;;;;;4932247;29;20662;-83
2022/04/26 05:11:12;;;;;;;22.10;9.95;;;8.20;99.90;;;;;;4931984;29;20441;-83
2022/04/26 05:13:37;;;;;;;17.20;7.97;;;7.90;99.90;;;;;;4932134;29;20465;-82
2022/04/26 05:16:03;;;;;;;19.60;9.73;;;8.00;99.90;;;;;;4900288;29;20138;-83
2022/04/26 05:18:29;;;;;;;17.70;9.20;;;7.80;99.90;;;;;;4931899;29;20048;-83
2022/04/26 05:20:55;;;;;;;17.33;10.07;;;8.00;99.90;;;;;;4899938;29;20572;-83
2022/04/26 05:26:05;;;;;;;21.45;8.55;;;7.90;99.90;;;;;;4933512;29;20461;-82
2022/04/26 05:28:31;;;;;;;20.15;8.77;;;8.00;99.90;;;;;;4935545;29;20087;-82
2022/04/26 05:30:56;;;;;;;19.80;9.35;;;8.10;99.90;;;;;;4935113;29;20063;-83
2022/04/26 05:33:22;;;;;;;20.35;8.25;;;8.30;99.90;;;;;;4935774;29;20139;-83
2022/04/26 05:35:49;;;;;;;13.35;6.78;;;8.60;99.90;;;;;;4919296;29;20142;-83
2022/04/26 05:38:15;;;;;;;20.58;8.18;;;8.70;99.90;;;;;;4917967;29;20052;-83
2022/04/26 05:40:41;;;;;;;15.23;7.50;;;8.70;99.90;;;;;;4935316;29;20075;-83
2022/04/26 05:43:07;;;;;;;19.77;7.70;;;8.60;99.90;;;;;;4934210;29;20064;-83
2022/04/26 05:45:33;;;;;;;17.27;7.82;;;8.80;99.90;;;;;;4903614;29;20047;-83
2022/04/26 05:47:58;;;;;;;11.57;6.72;;;9.00;99.90;;;;;;4934185;29;20090;-83
2022/04/26 05:50:24;;;;;;;14.18;6.13;;;9.50;99.90;;;;;;4918844;29;20055;-83
2022/04/26 05:52:50;;;;;;;12.80;6.13;;;10.00;99.90;;;;;;4919164;29;20096;-83
2022/04/26 05:55:15;;;;;;;12.43;6.20;;;10.80;99.90;;;;;;4933799;29;20727;-83
2022/04/26 05:57:42;;;;;;;12.73;5.95;;;11.60;99.90;;;;;;4934867;29;20095;-83
2022/04/26 06:00:12;;;;;;;15.02;5.70;;;11.90;99.90;;;;;;4934603;29;20051;-83
2022/04/26 06:02:38;;;;;;;13.10;5.75;;;13.00;99.90;;;;;;4934837;29;20094;-82
2022/04/26 06:05:04;;;;;;;15.88;5.95;;;13.30;99.90;;;;;;4933648;29;20836;-82
2022/04/26 06:07:30;;;;;;;12.15;5.57;;;13.80;99.90;;;;;;4935510;29;20142;-81
2022/04/26 06:09:56;;;;;;;12.18;5.80;;;13.60;99.90;;;;;;4935136;29;20044;-81
2022/04/26 06:12:26;;;;;;;13.10;5.70;;;13.20;99.90;;;;;;4934161;29;20507;-82
2022/04/26 06:14:53;;;;;;;18.70;6.72;;;12.00;99.90;;;;;;4919545;29;20103;-81
2022/04/26 06:17:19;;;;;;;13.75;5.28;;;12.00;99.90;;;;;;4934240;29;20056;-82
2022/04/26 06:19:45;;;;;;;23.65;7.35;;;11.60;99.90;;;;;;4918259;29;20412;-82
2022/04/26 06:22:10;;;;;;;10.95;5.60;;;11.40;99.90;;;;;;4918827;29;20119;-82
2022/04/26 06:24:36;;;;;;;10.18;5.13;;;11.00;99.90;;;;;;4919300;29;20066;-82
2022/04/26 06:27:02;;;;;;;13.13;6.43;;;11.20;99.90;;;;;;4903232;29;20052;-81
2022/04/26 06:29:28;;;;;;;12.30;5.38;;;10.60;99.90;;;;;;4919265;29;20134;-82
2022/04/26 06:31:54;;;;;;;19.05;5.88;;;10.80;99.90;;;;;;4903718;29;20095;-82
2022/04/26 06:34:20;;;;;;;15.55;6.47;;;10.70;99.90;;;;;;4935656;29;20205;-82
2022/04/26 06:36:45;;;;;;;7.53;3.72;;;10.50;99.90;;;;;;4934572;29;20043;-82
2022/04/26 06:39:11;;;;;;;13.40;2.95;;;10.70;99.90;;;;;;4918375;29;20055;-84
2022/04/26 06:41:37;;;;;;;11.60;6.25;;;10.80;99.90;;;;;;4935057;29;20059;-83
2022/04/26 06:44:03;;;;;;;13.65;5.35;;;10.50;99.90;;;;;;4936680;29;20484;-83
2022/04/26 06:46:29;;;;;;;9.10;3.53;;;10.40;99.90;;;;;;4904878;29;20056;-83
2022/04/26 06:48:58;;;;;;;8.43;3.55;;;10.40;99.90;;;;;;4944820;29;20061;-82
2022/04/26 06:51:24;;;;;;;11.40;4.50;;;10.70;99.90;;;;;;4931112;29;20139;-83
2022/04/26 06:53:51;;;;;;;10.25;4.45;;;10.40;99.90;;;;;;4922917;29;20055;-83
2022/04/26 06:56:17;;;;;;;12.52;4.85;;;10.80;99.90;;;;;;4935263;29;20092;-83
2022/04/26 06:58:43;;;;;;;9.18;4.20;;;11.10;99.90;;;;;;4926753;29;20492;-83
2022/04/26 07:01:08;;;;;;;6.30;3.28;;;11.50;99.90;;;;;;4936140;29;20047;-83
2022/04/26 07:03:34;;;;;;;8.80;4.10;;;12.50;99.90;;;;;;4935362;29;20395;-84
2022/04/26 07:06:00;;;;;;;8.10;2.90;;;12.70;99.90;;;;;;4934479;29;20051;-84
2022/04/26 07:08:25;;;;;;;8.68;4.75;;;13.40;99.90;;;;;;4911310;29;20127;-84
2022/04/26 07:10:51;;;;;;;11.45;3.75;;;14.30;99.90;;;;;;4901799;29;20086;-83
2022/04/26 07:13:20;;;;;;;6.97;3.30;;;15.00;99.90;;;;;;4933702;29;20083;-82
2022/04/26 07:15:46;;;;;;;6.88;3.20;;;15.40;99.90;;;;;;4934516;29;20480;-83
2022/04/26 07:18:12;;;;;;;5.82;3.20;;;15.10;99.90;;;;;;4934078;29;20110;-83
2022/04/26 07:20:39;;;;;;;7.63;3.58;;;14.40;99.90;;;;;;4934716;29;20048;-85
2022/04/26 07:23:04;;;;;;;7.72;2.75;;;13.60;99.90;;;;;;4918452;29;20055;-82
2022/04/26 07:25:30;;;;;;;10.00;4.15;;;13.10;99.90;;;;;;4918885;29;20044;-85
2022/04/26 07:27:56;;;;;;;9.57;3.78;;;12.60;99.90;;;;;;4918509;29;20118;-84
2022/04/26 07:30:21;;;;;;;7.47;3.40;;;12.20;99.90;;;;;;4932681;29;20052;-83
2022/04/26 07:35:31;;;;;;;10.23;3.05;;;12.60;99.90;;;;;;4933573;29;20047;-84
2022/04/26 07:38:07;;;;;;;7.28;3.08;;;13.10;99.90;;;;;;4934550;29;20044;-82
2022/04/26 07:40:33;;;;;;;5.68;3.00;;;13.30;99.90;;;;;;4917410;29;20492;-82
2022/04/26 07:42:59;;;;;;;9.63;3.20;;;14.10;99.90;;;;;;4908457;29;20055;-83
2022/04/26 07:45:25;;;;;;;10.25;3.35;;;14.90;99.90;;;;;;4932747;29;20052;-84
2022/04/26 07:47:51;;;;;;;6.63;3.15;;;15.10;99.90;;;;;;4916987;29;20106;-82
2022/04/26 07:50:16;;;;;;;8.82;3.58;;;14.80;99.90;;;;;;4917415;29;20062;-84
2022/04/26 07:52:42;;;;;;;6.15;2.83;;;14.30;99.90;;;;;;4917462;29;20059;-82
2022/04/26 07:55:08;;;;;;;10.43;4.85;;;14.00;99.90;;;;;;4892914;29;20544;-82
2022/04/26 07:57:34;;;;;;;8.23;3.00;;;14.00;99.90;;;;;;4934376;29;20048;-82
2022/04/26 08:00:00;;;;;;;7.45;3.10;;;14.40;99.90;;;;;;4934495;29;20433;-84
2022/04/26 08:02:26;;;;;;;4.32;2.97;;;15.70;99.90;;;;;;4917352;29;20124;-83
2022/04/26 08:04:54;;;;;;;6.75;2.92;;;16.50;99.90;;;;;;4933547;29;20047;-83
2022/04/26 08:07:20;;;;;;;6.95;2.67;;;16.30;99.90;;;;;;4900789;29;20099;-82
2022/04/26 08:09:48;;;;;;;5.88;2.92;;;16.00;99.90;;;;;;4917366;29;20126;-81
2022/04/26 08:12:14;;;;;;;6.00;1.92;;;15.80;99.90;;;;;;4915879;29;20484;-82
2022/04/26 08:14:40;;;;;;;4.47;2.28;;;16.70;99.90;;;;;;4932735;29;20052;-82
2022/04/26 08:17:06;;;;;;;6.38;2.13;;;17.00;99.90;;;;;;4931893;29;20082;-82
2022/04/26 08:19:32;;;;;;;6.70;2.83;;;17.20;99.90;;;;;;4930988;29;20103;-81
2022/04/26 08:21:58;;;;;;;7.65;2.70;;;16.50;99.90;;;;;;4931743;29;20075;-82
2022/04/26 08:27:24;;;;;;;9.43;3.00;;;15.20;99.90;;;;;;4931264;29;20058;-81
2022/04/26 08:29:54;;;;;;;5.70;2.72;;;14.10;99.90;;;;;;4917491;29;20047;-83
2022/04/26 08:32:20;;;;;;;5.22;2.40;;;15.10;99.90;;;;;;4932880;29;20172;-83
2022/04/26 08:34:45;;;;;;;5.07;2.70;;;15.60;99.90;;;;;;4933659;29;20091;-82
2022/04/26 08:37:11;;;;;;;5.93;2.88;;;15.30;99.90;;;;;;4918073;29;20054;-83
2022/04/26 08:39:37;;;;;;;5.45;2.58;;;15.60;99.90;;;;;;4933981;29;20060;-83
2022/04/26 08:42:04;;;;;;;7.10;3.15;;;15.90;99.90;;;;;;4934163;29;20047;-84
2022/04/26 08:44:30;;;;;;;7.88;2.40;;;15.50;99.90;;;;;;4900932;29;20503;-82
2022/04/26 08:52:27;;;;;;;5.40;2.75;;;15.60;99.90;;;;;;4917362;29;20063;-81
2022/04/26 08:54:53;;;;;;;5.18;2.30;;;16.00;99.90;;;;;;4917039;29;20040;-81
2022/04/26 08:57:18;;;;;;;5.90;2.58;;;15.90;99.90;;;;;;4932463;29;20063;-82
2022/04/26 08:59:48;;;;;;;4.35;2.35;;;15.50;99.90;;;;;;4934854;29;20047;-82
2022/04/26 09:02:21;;;;;;;8.90;3.00;;;15.80;99.90;;;;;;4897907;29;20164;-84
2022/04/26 09:04:51;;;;;;;8.82;2.17;;;15.10;99.90;;;;;;4927222;29;20076;-83
2022/04/26 09:07:31;;;;;;;6.72;2.70;;;14.60;99.90;;;;;;4919070;29;20052;-82
2022/04/26 09:10:16;;;;;;;3.72;2.00;;;13.80;99.90;;;;;;4938166;29;20506;-83
2022/04/26 09:13:08;;;;;;;10.27;2.78;;;13.60;99.90;;;;;;4938890;29;20130;-82
2022/04/26 09:15:36;;;;;;;5.90;2.80;;;13.60;99.90;;;;;;4937457;29;20075;-82
2022/04/26 09:18:30;;;;;;;8.73;3.28;;;14.00;99.90;;;;;;4956881;29;20048;-81
2022/04/26 09:21:07;;;;;;;11.45;3.35;;;13.60;99.90;;;;;;4927633;29;20056;-81
2022/04/26 09:23:33;;;;;;;9.25;2.80;;;13.60;99.90;;;;;;4940929;29;20058;-81
2022/04/26 09:26:08;;;;;;;10.48;3.67;;;14.00;99.90;;;;;;4924415;29;20051;-82
2022/04/26 09:28:34;;;;;;;9.57;3.67;;;14.70;99.90;;;;;;4937374;29;20055;-82
2022/04/26 09:31:00;;;;;;;6.05;2.70;;;14.90;99.90;;;;;;4937789;29;20052;-83
2022/04/26 09:33:53;;;;;;;4.80;3.17;;;14.80;99.90;;;;;;4937224;29;20052;-81
2022/04/26 09:36:20;;;;;;;13.27;3.47;;;14.50;99.90;;;;;;4933101;29;20111;-82
2022/04/26 09:38:55;;;;;;;9.38;3.75;;;14.00;99.90;;;;;;4921192;29;20054;-82
2022/04/26 09:41:21;;;;;;;6.32;3.35;;;14.10;99.90;;;;;;4935542;29;20392;-81
2022/04/26 09:43:56;;;;;;;6.50;2.53;;;14.40;99.90;;;;;;4888516;29;20067;-83
2022/04/26 09:46:23;;;;;;;5.70;2.90;;;15.70;99.90;;;;;;4936575;29;20054;-81
2022/04/26 09:48:49;;;;;;;5.53;2.88;;;15.00;99.90;;;;;;4942735;29;20055;-82
2022/04/26 09:51:16;;;;;;;7.93;3.20;;;15.20;99.90;;;;;;4938073;29;20094;-80
2022/04/26 09:53:42;;;;;;;23.10;4.00;;;14.60;99.90;;;;;;4905077;29;20064;-82
2022/04/26 09:56:08;;;;;;;7.65;3.45;;;14.70;99.90;;;;;;4939753;29;20063;-81
2022/04/26 09:58:35;;;;;;;9.68;3.10;;;14.80;99.90;;;;;;4921635;29;20054;-80
2022/04/26 10:01:04;;;;;;;12.70;3.90;;;15.60;99.90;;;;;;4905207;29;20459;-80
2022/04/26 10:03:36;;;;;;;4.78;3.05;;;15.50;99.90;;;;;;4904669;29;20489;-80
2022/04/26 10:06:03;;;;;;;4.65;3.30;;;15.00;99.90;;;;;;4935301;29;20381;-80
2022/04/26 10:08:30;;;;;;;9.57;3.35;;;14.00;99.90;;;;;;4880505;29;20500;-82
2022/04/26 10:10:57;;;;;;;7.20;3.28;;;14.60;99.90;;;;;;4932698;29;20551;-82
2022/04/26 10:13:31;;;;;;;6.22;3.15;;;14.70;99.90;;;;;;4919861;29;20059;-82
2022/04/26 10:16:02;;;;;;;6.43;2.70;;;15.60;99.90;;;;;;4903430;29;20126;-81
2022/04/26 10:18:32;;;;;;;16.05;3.15;;;16.70;99.90;;;;;;4934215;29;20139;-80
2022/04/26 10:21:01;;;;;;;11.50;3.22;;;16.90;99.90;;;;;;4918057;29;20052;-80
2022/04/26 10:23:27;;;;;;;5.75;3.08;;;15.70;99.90;;;;;;4918767;29;20051;-80
2022/04/26 10:26:21;;;;;;;5.78;3.28;;;15.50;99.90;;;;;;4919365;29;20152;-81
2022/04/26 10:28:58;;;;;;;6.85;3.35;;;15.60;99.90;;;;;;4935890;29;20127;-81
2022/04/26 10:31:40;;;;;;;4.63;2.45;;;16.10;99.90;;;;;;4913245;29;20040;-82
2022/04/26 10:34:18;;;;;;;6.65;3.05;;;16.70;99.90;;;;;;4901209;29;20048;-82
2022/04/26 10:37:05;;;;;;;7.97;3.33;;;15.40;99.90;;;;;;4916796;29;20052;-80
2022/04/26 10:39:38;;;;;;;6.00;3.33;;;14.60;99.90;;;;;;4924564;29;20044;-82
2022/04/26 10:42:16;;;;;;;6.97;3.45;;;14.50;99.90;;;;;;4920364;29;20570;-81
2022/04/26 10:44:45;;;;;;;6.55;3.33;;;15.00;99.90;;;;;;4935613;29;20257;-81
2022/04/26 10:47:20;;;;;;;18.95;3.35;;;14.90;99.90;;;;;;4936061;29;20059;-83
2022/04/26 10:49:48;;;;;;;7.32;3.50;;;16.30;99.90;;;;;;4935262;29;20051;-80
2022/04/26 10:52:22;;;;;;;8.65;3.40;;;15.80;99.90;;;;;;4934969;29;20416;-79
2022/04/26 10:55:03;;;;;;;4.90;3.05;;;15.50;99.90;;;;;;4917939;29;20091;-80
2022/04/26 10:57:39;;;;;;;6.30;3.38;;;15.20;99.90;;;;;;4935264;29;20052;-80
2022/04/26 11:00:34;;;;;;;8.75;3.45;;;15.10;99.90;;;;;;4920727;29;20051;-80
2022/04/26 11:03:04;;;;;;;6.05;3.10;;;15.70;99.90;;;;;;4935624;29;20055;-81
2022/04/26 11:05:32;;;;;;;6.80;2.97;;;17.00;99.60;;;;;;4919703;29;20060;-81
2022/04/26 11:07:58;;;;;;;7.05;3.70;;;17.10;99.20;;;;;;4935479;29;20048;-81
2022/04/26 11:10:25;;;;;;;6.10;3.28;;;16.50;99.70;;;;;;4919003;29;20113;-80
2022/04/26 11:12:51;;;;;;;5.38;3.20;;;16.40;99.90;;;;;;4930818;29;20122;-81
2022/04/26 11:15:21;;;;;;;7.63;3.60;;;17.20;99.30;;;;;;4910760;29;20175;-81
2022/04/26 11:17:47;;;;;;;7.50;3.47;;;15.80;99.90;;;;;;4918580;29;20172;-81
2022/04/26 11:20:17;;;;;;;5.82;3.58;;;15.80;99.90;;;;;;4931976;29;20047;-81
2022/04/26 11:22:44;;;;;;;5.43;3.65;;;14.90;99.90;;;;;;4918610;29;20516;-81
2022/04/26 11:28:06;;;;;;;6.57;3.70;;;15.30;99.90;;;;;;4934279;29;20063;-82
2022/04/26 11:30:35;;;;;;;9.55;4.28;;;15.40;99.90;;;;;;4904433;29;20102;-81
2022/04/26 11:33:22;;;;;;;9.23;3.60;;;15.60;99.90;;;;;;4937128;29;20047;-82
2022/04/26 11:35:56;;;;;;;7.00;3.30;;;16.40;99.90;;;;;;4933595;29;20051;-81
2022/04/26 11:38:22;;;;;;;;;;;16.30;99.80;;;;;;4935921;29;20051;-81
2022/04/26 11:40:54;;;;;;;7.10;3.58;;;15.60;99.90;;;;;;4934551;29;20065;-81
2022/04/26 11:43:26;;;;;;;5.50;3.67;;;15.10;99.90;;;;;;4918850;29;20488;-80
2022/04/26 11:45:53;;;;;;;5.75;3.58;;;15.00;99.90;;;;;;4933963;29;20480;-81
2022/04/26 11:48:20;;;;;;;6.28;3.50;;;14.70;99.90;;;;;;4934433;29;20066;-81
2022/04/26 11:50:50;;;;;;;8.18;3.28;;;14.40;99.90;;;;;;4932665;29;20040;-81
2022/04/26 11:53:17;;;;;;;4.68;3.38;;;14.40;99.90;;;;;;4915639;29;20063;-81
2022/04/26 11:55:45;;;;;;;5.68;3.17;;;15.10;99.90;;;;;;4932311;29;20083;-81
2022/04/26 11:58:12;;;;;;;5.95;3.33;;;15.00;99.90;;;;;;4921039;29;20040;-81
2022/04/26 12:01:04;;;;;;;7.70;3.30;;;15.70;99.90;;;;;;4933200;29;20047;-81
2022/04/26 12:03:33;;;;;;;6.18;3.33;;;14.90;99.90;;;;;;4918879;29;20048;-81
2022/04/26 12:06:05;;;;;;;6.45;3.45;;;14.90;99.90;;;;;;4916125;29;20059;-80
2022/04/26 12:08:36;;;;;;;5.78;2.97;;;15.30;99.90;;;;;;4932167;29;20500;-82
2022/04/26 12:11:18;;;;;;;6.75;3.80;;;16.20;98.60;;;;;;4917392;29;20564;-81
2022/04/26 12:13:44;;;;;;;4.78;3.33;;;15.60;99.80;;;;;;4933460;29;20055;-82
2022/04/26 12:16:20;;;;;;;7.75;3.47;;;15.50;99.30;;;;;;4913938;29;20052;-81
2022/04/26 12:18:50;;;;;;;6.53;3.40;;;15.40;99.90;;;;;;4915575;29;20130;-83
2022/04/26 12:21:15;;;;;;;5.28;3.00;;;16.00;99.10;;;;;;4916360;29;20497;-82
2022/04/26 12:23:41;;;;;;;5.30;3.70;;;16.00;99.20;;;;;;4914986;29;20103;-83
2022/04/26 12:26:08;;;;;;;7.43;3.53;;;15.30;99.60;;;;;;4915422;29;20056;-81
2022/04/26 12:28:48;;;;;;;4.63;3.40;;;15.30;99.50;;;;;;4919829;29;20509;-82
2022/04/26 12:31:21;;;;;;;8.52;3.67;;;14.80;99.90;;;;;;4918112;29;20107;-81
2022/04/26 12:34:12;;;;;;;7.40;3.53;;;15.00;99.90;;;;;;4903603;29;20246;-82
2022/04/26 12:36:57;;;;;;;7.22;3.20;;;15.10;99.90;;;;;;4905860;29;20043;-80
2022/04/26 12:39:24;;;;;;;6.22;3.15;;;14.90;99.90;;;;;;4930107;29;20062;-79
2022/04/26 12:41:51;;;;;;;5.85;2.80;;;15.50;99.90;;;;;;4934176;29;20078;-80
2022/04/26 12:44:17;;;;;;;5.43;3.35;;;15.90;98.60;;;;;;4934652;29;20059;-80
2022/04/26 12:50:28;;;;;;;5.50;3.10;;;15.30;99.60;;;;;;4933079;29;20059;-81
2022/04/26 12:52:43;;;;;;;5.30;3.17;;;15.60;99.00;;;;;;4933923;29;20059;-81
2022/04/26 12:55:09;;;;;;;5.43;2.80;;;15.20;99.10;;;;;;4918445;29;20056;-81
2022/04/26 12:57:51;;;;;;;6.18;3.08;;;15.40;98.70;;;;;;4936020;29;20066;-81
2022/04/26 13:00:19;;;;;;;6.57;2.53;;;14.90;97.70;;;;;;4917514;29;20051;-81
2022/04/26 13:02:49;;;;;;;4.78;3.22;;;15.50;96.80;;;;;;4918010;29;20488;-80
2022/04/26 13:05:15;;;;;;;6.47;2.70;;;15.00;98.60;;;;;;4917880;29;20084;-80
2022/04/26 13:07:42;;;;;;;6.45;2.58;;;15.10;98.40;;;;;;4933497;29;20047;-80
2022/04/26 13:10:08;;;;;;;4.82;2.70;;;15.00;98.70;;;;;;4933967;29;20087;-81
2022/04/26 13:12:34;;;;;;;3.72;2.50;;;14.80;98.00;;;;;;4933620;29;20083;-80
2022/04/26 13:15:00;;;;;;;5.07;2.75;;;14.90;97.00;;;;;;4933955;29;20134;-81
2022/04/26 13:17:26;;;;;;;5.65;3.05;;;15.30;98.00;;;;;;4917740;29;20103;-81
2022/04/26 13:19:52;;;;;;;5.43;2.60;;;15.50;96.30;;;;;;4916902;29;20496;-82
2022/04/26 13:22:18;;;;;;;3.55;1.95;;;15.40;96.60;;;;;;4917403;29;20421;-82
2022/04/26 13:24:44;;;;;;;4.90;3.05;;;15.60;95.00;;;;;;4933325;29;20059;-81
2022/04/26 13:27:11;;;;;;;5.95;2.88;;;15.00;97.40;;;;;;4933568;29;20039;-81
2022/04/26 13:29:37;;;;;;;2.78;2.40;;;14.80;98.20;;;;;;4933008;29;20060;-82
2022/04/26 13:32:04;;;;;;;5.60;2.92;;;15.50;96.40;;;;;;4915758;29;20055;-78
2022/04/26 13:34:30;;;;;;;5.88;3.00;;;15.10;97.90;;;;;;4932249;29;20043;-83
2022/04/26 13:36:55;;;;;;;6.03;2.88;;;15.50;96.30;;;;;;4933415;29;20040;-81
2022/04/26 13:39:21;;;;;;;4.68;2.88;;;15.10;97.30;;;;;;4932653;29;20054;-82
2022/04/26 13:41:50;;;;;;;4.03;2.35;;;15.20;97.50;;;;;;4917518;29;20060;-82
2022/04/26 13:44:19;;;;;;;4.78;2.70;;;15.70;96.40;;;;;;4934223;29;20119;-81
2022/04/26 13:46:45;;;;;;;6.40;2.60;;;15.20;97.10;;;;;;4935887;29;20074;-80
2022/04/26 13:49:11;;;;;;;6.07;3.00;;;15.20;98.10;;;;;;4920431;29;20051;-80
2022/04/26 13:51:37;;;;;;;5.53;2.75;;;15.10;98.60;;;;;;4937699;29;20568;-81
2022/04/26 13:54:02;;;;;;;6.75;3.10;;;15.10;98.50;;;;;;4941394;29;20087;-81
2022/04/26 13:56:28;;;;;;;5.45;2.92;;;15.00;98.80;;;;;;4951811;29;20068;-80
2022/04/26 13:58:54;;;;;;;5.63;3.15;;;14.80;98.90;;;;;;4954724;29;20050;-80
2022/04/26 14:01:22;;;;;;;4.22;2.63;;;14.80;99.30;;;;;;4938725;29;20098;-79
2022/04/26 14:03:49;;;;;;;4.03;2.28;;;14.70;98.60;;;;;;4936305;29;20059;-82
2022/04/26 14:06:18;;;;;;;6.25;2.95;;;15.00;98.10;;;;;;4933328;29;20051;-81
2022/04/26 14:08:48;;;;;;;4.72;2.80;;;15.10;99.40;;;;;;4935692;29;20040;-81
2022/04/26 14:11:15;;;;;;;3.55;2.70;;;15.00;98.80;;;;;;4936197;29;20039;-81
2022/04/26 14:21:53;;;;;;;4.40;2.63;;;14.80;99.50;;;;;;4933056;29;20056;-80
2022/04/26 14:24:18;;;;;;;8.85;3.08;;;14.90;99.90;;;;;;4918176;29;20044;-79
2022/04/26 14:26:44;;;;;;;6.65;3.10;;;14.90;99.90;;;;;;4934775;29;20069;-79
2022/04/26 14:29:10;;;;;;;4.22;2.70;;;14.60;99.90;;;;;;4935318;29;20047;-79
2022/04/26 14:31:36;;;;;;;6.72;3.10;;;14.60;99.90;;;;;;4935062;29;20047;-79
2022/04/26 14:34:02;;;;;;;5.05;2.92;;;14.30;99.90;;;;;;4935818;29;20047;-81
2022/04/26 14:36:28;;;;;;;5.03;2.72;;;14.30;99.90;;;;;;4935347;29;20099;-80
2022/04/26 14:38:54;;;;;;;4.55;2.90;;;14.30;99.90;;;;;;4936687;29;20504;-81
2022/04/26 14:41:20;;;;;;;6.95;2.72;;;14.50;99.80;;;;;;4935222;29;20488;-80
2022/04/26 14:43:45;;;;;;;6.00;2.88;;;14.30;99.90;;;;;;4935879;29;20072;-80
2022/04/26 14:46:11;;;;;;;5.95;2.72;;;13.80;99.90;;;;;;4934736;29;20047;-81
2022/04/26 14:48:38;;;;;;;6.90;2.97;;;13.80;99.90;;;;;;4916624;29;20166;-81
2022/04/26 14:51:04;;;;;;;5.60;3.10;;;13.90;99.90;;;;;;4934435;29;20083;-78
2022/04/26 14:53:30;;;;;;;8.32;3.05;;;13.80;99.90;;;;;;4934750;29;20051;-81
2022/04/26 14:55:59;;;;;;;6.70;3.03;;;13.60;99.90;;;;;;4919176;29;20048;-81
2022/04/26 14:58:25;;;;;;;7.03;3.97;;;13.20;99.90;;;;;;4934293;29;20397;-82
2022/04/26 15:00:51;;;;;;;5.78;2.85;;;13.60;99.90;;;;;;4934838;29;20044;-81
2022/04/26 15:03:17;;;;;;;7.53;3.00;;;13.40;99.90;;;;;;4934330;29;20055;-82
2022/04/26 15:05:43;;;;;;;6.07;3.30;;;13.30;99.90;;;;;;4919665;29;20102;-82
2022/04/26 15:10:53;;;;;;;5.60;3.40;;;13.10;99.90;;;;;;4917535;29;20063;-81
2022/04/26 15:18:47;;;;;;;7.93;4.13;;;12.90;99.90;;;;;;4934270;29;20412;-80
2022/04/26 15:21:13;;;;;;;9.10;3.10;;;13.00;99.90;;;;;;4934689;29;20054;-81
2022/04/26 15:23:39;;;;;;;11.13;3.60;;;13.00;99.90;;;;;;4934484;29;20051;-80
2022/04/26 15:26:06;;;;;;;6.65;3.35;;;13.50;99.90;;;;;;4917208;29;20103;-81
2022/04/26 15:28:33;;;;;;;5.38;3.40;;;13.40;99.90;;;;;;4917537;29;20059;-83
2022/04/26 15:30:59;;;;;;;8.32;3.58;;;13.30;99.90;;;;;;4917066;29;20054;-82
2022/04/26 15:33:25;;;;;;;5.82;3.10;;;13.60;99.90;;;;;;4916240;29;20523;-80
2022/04/26 15:35:51;;;;;;;4.13;2.95;;;13.30;99.90;;;;;;4917199;29;20056;-82
2022/04/26 15:38:17;;;;;;;5.38;3.50;;;13.30;99.90;;;;;;4908306;29;20060;-80
2022/04/26 15:40:46;;;;;;;5.82;3.22;;;13.00;99.90;;;;;;4917238;29;20048;-81
2022/04/26 15:43:12;;;;;;;8.00;3.15;;;13.30;99.90;;;;;;4916465;29;20071;-80
2022/04/26 15:45:37;;;;;;;4.78;3.13;;;13.00;99.90;;;;;;4930218;29;20043;-80
2022/04/26 15:48:04;;;;;;;10.45;3.40;;;13.00;99.90;;;;;;4936252;29;20135;-81
2022/04/26 15:50:30;;;;;;;8.07;3.17;;;13.00;99.90;;;;;;4934134;29;20087;-81
2022/04/26 15:52:56;;;;;;;9.48;3.50;;;12.70;99.90;;;;;;4933895;29;20448;-81
2022/04/26 15:55:22;;;;;;;7.25;3.20;;;12.50;99.90;;;;;;4932504;29;20050;-81
2022/04/26 15:57:53;;;;;;;7.05;3.20;;;12.70;99.90;;;;;;4935544;29;20122;-80
2022/04/26 16:00:20;;;;;;;5.15;2.92;;;12.70;99.90;;;;;;4933187;29;20048;-81
2022/04/26 16:02:47;;;;;;;7.65;4.45;;;12.70;99.90;;;;;;4932264;29;20094;-82
2022/04/26 16:05:13;;;;;;;7.70;3.90;;;12.80;99.90;;;;;;4915986;29;20047;-82
2022/04/26 16:07:39;;;;;;;6.07;2.63;;;12.70;99.90;;;;;;4932536;29;20090;-82
2022/04/26 16:21:03;;;;;;;6.78;2.90;;;12.80;99.90;;;;;;4935718;29;20055;-80
2022/04/26 16:23:29;;;;;;;3.40;2.88;;;12.90;99.90;;;;;;4917823;29;20047;-82
2022/04/26 16:26:06;;;;;;;3.90;2.00;;;13.00;99.90;;;;;;4933919;29;20054;-82
2022/04/26 16:28:36;;;;;;;7.05;3.30;;;13.20;99.90;;;;;;4913959;29;20092;-81
2022/04/26 16:31:02;;;;;;;5.95;3.15;;;13.10;99.90;;;;;;4929941;29;20548;-82
2022/04/26 16:33:28;;;;;;;5.63;4.45;;;13.30;99.90;;;;;;4931879;29;20591;-82
2022/04/26 16:35:54;;;;;;;3.90;2.35;;;13.10;99.90;;;;;;4932099;29;20047;-83
2022/04/26 16:38:20;;;;;;;5.53;2.60;;;13.30;99.90;;;;;;4932399;29;20134;-81
2022/04/26 16:40:47;;;;;;;4.70;3.08;;;13.20;99.90;;;;;;4931583;29;20381;-81
2022/04/26 16:43:16;;;;;;;7.00;5.68;;;13.30;99.90;;;;;;4931239;29;20087;-81
2022/04/26 16:45:45;;;;;;;8.77;4.78;;;13.30;99.90;;;;;;4933173;29;20051;-82
2022/04/26 16:48:11;;;;;;;5.28;4.47;;;13.20;99.90;;;;;;4900938;29;20062;-83
2022/04/26 16:50:36;;;;;;;11.68;4.18;;;13.20;99.90;;;;;;4915484;29;20542;-82
2022/04/26 16:53:03;;;;;;;6.20;3.50;;;13.30;99.90;;;;;;4915278;29;20060;-82
2022/04/26 16:55:29;;;;;;;5.47;3.00;;;13.30;99.90;;;;;;4899404;29;20135;-81
2022/04/26 16:57:57;;;;;;;8.07;3.13;;;13.30;99.90;;;;;;4931911;29;20143;-80
2022/04/26 17:00:24;;;;;;;7.60;3.20;;;13.10;99.90;;;;;;4933342;29;20158;-80
2022/04/26 17:02:50;;;;;;;7.07;3.15;;;13.30;99.90;;;;;;4932966;29;20059;-81
2022/04/26 17:05:16;;;;;;;7.60;3.08;;;13.30;99.90;;;;;;4932192;29;20060;-81
2022/04/26 17:07:41;;;;;;;4.05;2.40;;;13.30;99.90;;;;;;4916920;29;20142;-82
2022/04/26 17:10:07;;;;;;;5.45;3.00;;;13.20;99.90;;;;;;4932097;29;20079;-80
2022/04/26 17:12:33;;;;;;;5.88;3.05;;;13.00;99.90;;;;;;4931216;29;20044;-81